createdAt,value
2022-11-25T00:00:39.599Z,99.77
2022-11-25T00:03:24.214Z,92.05
2022-11-25T00:05:55.789Z,101.45
2022-11-25T00:10:54.738Z,89.88
2022-11-25T00:13:24.458Z,103.53
2022-11-25T00:15:54.737Z,102.18
2022-11-25T00:18:24.738Z,111.23
2022-11-25T00:20:55.954Z,95.05
2022-11-25T00:23:30.412Z,92.50
2022-11-25T00:26:11.233Z,102.03
2022-11-25T00:28:41.332Z,110.35
2022-11-25T00:31:12.773Z,100.85
2022-11-25T00:33:42.676Z,98.70
2022-11-25T00:36:18.687Z,109.70
2022-11-25T00:38:48.665Z,102.18
2022-11-25T00:41:35.696Z,100.55
2022-11-25T00:44:21.434Z,104.32
2022-11-25T00:46:51.531Z,104.40
2022-11-25T00:49:20.876Z,110.00
2022-11-25T00:51:52.581Z,136.70
2022-11-25T00:54:22.032Z,126.18
2022-11-25T00:56:51.993Z,114.90
2022-11-25T00:59:21.588Z,110.82
2022-11-25T01:01:51.585Z,131.38
2022-11-25T01:04:21.127Z,113.53
2022-11-25T01:06:52.371Z,127.15
2022-11-25T01:09:21.942Z,128.70
2022-11-25T01:11:52.693Z,130.55
2022-11-25T01:14:23.256Z,125.45
2022-11-25T01:16:53.698Z,112.78
2022-11-25T01:19:23.047Z,132.60
2022-11-25T01:21:54.300Z,135.68
2022-11-25T01:24:24.357Z,129.52
2022-11-25T01:26:56.338Z,150.10
2022-11-25T01:29:25.908Z,148.95
2022-11-25T01:31:57.760Z,145.55
2022-11-25T01:34:30.047Z,130.70
2022-11-25T01:37:01.103Z,138.07
2022-11-25T01:39:33.191Z,133.32
2022-11-25T01:42:03.808Z,138.90
2022-11-25T01:44:34.707Z,134.27
2022-11-25T01:47:13.832Z,124.15
2022-11-25T01:49:46.594Z,139.13
2022-11-25T01:52:22.688Z,142.93
2022-11-25T01:54:55.554Z,156.55
2022-11-25T01:57:29.807Z,166.82
2022-11-25T02:00:04.746Z,164.93
2022-11-25T02:02:35.855Z,185.10
2022-11-25T02:05:09.930Z,191.80
2022-11-25T02:07:43.673Z,191.82
2022-11-25T02:10:16.660Z,194.30
2022-11-25T02:12:48.515Z,200.20
2022-11-25T02:15:18.666Z,168.10
2022-11-25T02:17:49.333Z,176.98
2022-11-25T02:20:21.052Z,168.57
2022-11-25T02:23:00.688Z,183.60
2022-11-25T02:25:34.130Z,177.23
2022-11-25T02:28:09.172Z,174.23
2022-11-25T02:30:39.295Z,169.88
2022-11-25T02:33:09.321Z,178.40
2022-11-25T02:35:40.488Z,151.98
2022-11-25T02:38:12.018Z,163.40
2022-11-25T02:40:49.318Z,195.45
2022-11-25T02:43:19.759Z,154.48
2022-11-25T02:45:58.308Z,166.50
2022-11-25T02:49:00.763Z,172.02
2022-11-25T02:51:22.961Z,160.65
2022-11-25T02:53:53.199Z,173.93
2022-11-25T02:56:26.305Z,178.73
2022-11-25T02:58:56.308Z,151.52
2022-11-25T03:01:25.642Z,161.90
2022-11-25T03:03:55.861Z,162.15
2022-11-25T03:06:25.184Z,150.50
2022-11-25T03:08:56.007Z,156.00
2022-11-25T03:11:46.895Z,171.27
2022-11-25T03:14:16.628Z,166.00
2022-11-25T03:16:46.035Z,144.35
2022-11-25T03:19:15.746Z,161.63
2022-11-25T03:21:45.289Z,150.05
2022-11-25T03:24:15.107Z,162.40
2022-11-25T03:26:45.935Z,183.98
2022-11-25T03:29:16.120Z,172.00
2022-11-25T03:31:45.470Z,171.85
2022-11-25T03:34:15.864Z,201.85
2022-11-25T03:36:45.577Z,189.85
2022-11-25T03:39:15.241Z,174.63
2022-11-25T03:41:45.994Z,185.85
2022-11-25T03:44:16.123Z,189.57
2022-11-25T03:46:45.565Z,192.85
2022-11-25T03:49:15.694Z,198.53
2022-11-25T03:51:45.734Z,203.50
2022-11-25T03:54:15.574Z,197.55
2022-11-25T03:56:46.652Z,183.02
2022-11-25T03:59:16.323Z,196.95
2022-11-25T04:01:45.622Z,184.35
2022-11-25T04:04:15.251Z,188.25
2022-11-25T04:06:44.752Z,218.00
2022-11-25T04:09:14.362Z,192.27
2022-11-25T04:12:00.894Z,188.80
2022-11-25T04:14:32.559Z,176.07
2022-11-25T04:17:02.012Z,182.20
2022-11-25T04:19:31.667Z,180.10
2022-11-25T04:22:01.539Z,207.85
2022-11-25T04:24:31.718Z,198.55
2022-11-25T04:27:01.008Z,213.68
2022-11-25T04:29:32.066Z,184.07
2022-11-25T04:32:01.451Z,217.23
2022-11-25T04:34:31.319Z,192.57
2022-11-25T04:37:00.919Z,205.68
2022-11-25T04:39:30.737Z,166.18
2022-11-25T04:42:13.660Z,179.18
2022-11-25T04:45:01.002Z,187.75
2022-11-25T04:47:34.716Z,167.48
2022-11-25T04:50:04.788Z,159.90
2022-11-25T04:52:35.563Z,152.02
2022-11-25T04:57:34.666Z,151.85
2022-11-25T05:00:07.485Z,159.20
2022-11-25T05:02:37.412Z,161.30
2022-11-25T05:05:08.612Z,153.05
2022-11-25T05:07:39.106Z,141.15
2022-11-25T05:10:09.983Z,133.23
2022-11-25T05:12:39.660Z,154.13
2022-11-25T05:15:12.539Z,149.93
2022-11-25T05:17:42.043Z,150.25
2022-11-25T05:20:13.184Z,133.07
2022-11-25T05:22:42.488Z,188.90
2022-11-25T05:25:12.919Z,148.50
2022-11-25T05:27:42.348Z,133.75
2022-11-25T05:30:15.303Z,123.93
2022-11-25T05:32:45.053Z,101.80
2022-11-25T05:35:15.572Z,86.75
2022-11-25T05:37:45.840Z,94.35
2022-11-25T05:40:16.062Z,104.97
2022-11-25T05:42:45.547Z,90.80
2022-11-25T05:45:16.759Z,92.43
2022-11-25T05:47:46.594Z,86.95
2022-11-25T05:50:16.465Z,81.82
2022-11-25T05:52:45.716Z,89.25
2022-11-25T05:55:15.720Z,77.15
2022-11-25T05:57:45.511Z,77.88
2022-11-25T06:00:23.480Z,84.70
2022-11-25T06:02:56.028Z,83.23
2022-11-25T06:05:26.395Z,92.07
2022-11-25T06:07:55.880Z,94.55
2022-11-25T06:10:25.499Z,85.18
2022-11-25T06:12:55.112Z,92.88
2022-11-25T06:15:26.203Z,94.40
2022-11-25T06:17:55.612Z,94.28
2022-11-25T06:20:25.587Z,84.77
2022-11-25T06:22:55.289Z,79.40
2022-11-25T06:25:25.211Z,74.50
2022-11-25T06:28:12.402Z,66.60
2022-11-25T06:30:44.438Z,68.72
2022-11-25T06:35:43.763Z,75.70
2022-11-25T06:38:13.124Z,65.95
2022-11-25T06:40:43.383Z,79.30
2022-11-25T06:43:12.854Z,73.50
2022-11-25T06:45:45.191Z,81.50
2022-11-25T06:48:14.819Z,77.03
2022-11-25T06:50:44.464Z,86.22
2022-11-25T06:53:13.737Z,85.18
2022-11-25T06:55:43.540Z,81.43
2022-11-25T06:58:35.023Z,84.18
2022-11-25T07:01:05.503Z,80.53
2022-11-25T07:03:35.263Z,85.78
2022-11-25T07:06:06.247Z,83.03
2022-11-25T07:08:35.985Z,81.03
2022-11-25T07:11:07.914Z,82.78
2022-11-25T07:13:37.193Z,73.13
2022-11-25T07:16:09.654Z,76.97
2022-11-25T07:18:39.868Z,72.05
2022-11-25T07:21:11.177Z,66.72
2022-11-25T07:23:41.583Z,77.65
2022-11-25T07:26:13.391Z,80.60
2022-11-25T07:28:43.569Z,69.20
2022-11-25T07:31:28.750Z,76.50
2022-11-25T07:34:02.516Z,79.85
2022-11-25T07:36:33.251Z,69.82
2022-11-25T07:39:05.116Z,76.40
2022-11-25T07:41:35.710Z,68.90
2022-11-25T07:44:07.926Z,78.50
2022-11-25T07:46:40.944Z,69.90
2022-11-25T07:49:13.074Z,85.72
2022-11-25T07:51:45.237Z,70.63
2022-11-25T07:54:15.065Z,66.43
2022-11-25T07:56:46.360Z,72.77
2022-11-25T07:59:17.444Z,70.53
2022-11-25T08:01:50.381Z,63.22
2022-11-25T08:04:21.108Z,64.22
2022-11-25T08:06:53.004Z,69.78
2022-11-25T08:09:24.234Z,63.67
2022-11-25T08:11:54.633Z,53.60
2022-11-25T08:14:23.889Z,61.00
2022-11-25T08:16:55.264Z,61.58
2022-11-25T08:19:29.910Z,68.55
2022-11-25T08:22:01.228Z,60.30
2022-11-25T08:24:30.748Z,58.33
2022-11-25T08:27:01.598Z,64.88
2022-11-25T08:29:31.007Z,52.70
2022-11-25T08:32:05.190Z,49.28
2022-11-25T08:34:38.146Z,51.80
2022-11-25T08:37:07.771Z,62.53
2022-11-25T08:39:52.577Z,60.63
2022-11-25T08:42:23.000Z,68.90
2022-11-25T08:44:55.710Z,87.43
2022-11-25T08:47:27.300Z,86.18
2022-11-25T08:49:57.351Z,79.63
2022-11-25T08:52:29.157Z,74.07
2022-11-25T08:54:58.499Z,71.47
2022-11-25T08:57:29.008Z,71.13
2022-11-25T08:59:58.324Z,82.38
2022-11-25T09:02:29.569Z,81.88
2022-11-25T09:04:58.907Z,74.18
2022-11-25T09:07:30.836Z,76.57
2022-11-25T09:10:00.566Z,86.30
2022-11-25T09:12:30.531Z,79.60
2022-11-25T09:15:00.855Z,86.60
2022-11-25T09:17:32.089Z,96.57
2022-11-25T09:20:01.651Z,80.35
2022-11-25T09:22:31.308Z,79.20
2022-11-25T09:25:00.575Z,75.18
2022-11-25T09:27:30.546Z,82.70
2022-11-25T09:30:00.002Z,85.60
2022-11-25T09:32:31.115Z,67.88
2022-11-25T09:35:00.577Z,83.50
2022-11-25T09:37:30.443Z,64.50
2022-11-25T09:39:59.728Z,67.75
2022-11-25T09:43:06.647Z,63.58
2022-11-25T09:46:01.005Z,62.05
2022-11-25T09:48:53.207Z,69.13
2022-11-25T09:51:26.177Z,56.42
2022-11-25T09:53:58.669Z,52.65
2022-11-25T09:56:35.354Z,50.90
2022-11-25T09:59:09.563Z,46.65
2022-11-25T10:01:49.523Z,54.67
2022-11-25T10:04:26.529Z,52.07
2022-11-25T10:07:01.453Z,49.65
2022-11-25T10:09:33.873Z,49.42
2022-11-25T10:12:08.698Z,39.72
2022-11-25T10:14:44.322Z,44.10
2022-11-25T10:17:18.846Z,61.53
2022-11-25T10:19:58.628Z,40.88
2022-11-25T10:22:31.942Z,39.78
2022-11-25T10:25:05.004Z,38.65
2022-11-25T10:27:44.092Z,36.30
2022-11-25T10:30:19.676Z,38.63
2022-11-25T10:32:56.583Z,45.92
2022-11-25T10:35:35.771Z,36.35
2022-11-25T10:38:08.381Z,31.10
2022-11-25T10:40:38.153Z,30.90
2022-11-25T10:43:13.771Z,32.80
2022-11-25T10:45:50.714Z,37.55
2022-11-25T10:48:43.923Z,31.08
2022-11-25T10:51:27.502Z,31.55
2022-11-25T10:54:27.221Z,22.27
2022-11-25T10:56:59.736Z,24.90
2022-11-25T10:59:33.687Z,22.15
2022-11-25T11:02:20.619Z,23.20
2022-11-25T11:04:56.498Z,24.13
2022-11-25T11:07:29.286Z,28.85
2022-11-25T11:10:20.302Z,34.00
2022-11-25T11:12:58.132Z,26.58
2022-11-25T11:15:29.737Z,29.92
2022-11-25T11:18:01.264Z,26.20
2022-11-25T11:20:34.125Z,25.77
2022-11-25T11:23:15.457Z,31.65
2022-11-25T11:25:56.603Z,27.42
2022-11-25T11:28:33.237Z,29.80
2022-11-25T11:31:05.460Z,31.02
2022-11-25T11:33:42.619Z,30.80
2022-11-25T11:36:28.727Z,34.05
2022-11-25T11:39:19.830Z,34.53
2022-11-25T11:41:56.162Z,33.83
2022-11-25T11:44:37.951Z,31.15
2022-11-25T11:47:21.455Z,42.50
2022-11-25T11:50:13.067Z,47.15
2022-11-25T11:52:52.430Z,38.60
2022-11-25T11:55:40.736Z,36.70
2022-11-25T11:58:19.261Z,39.72
2022-11-25T12:00:55.864Z,38.35
2022-11-25T12:03:29.146Z,31.98
2022-11-25T12:06:02.421Z,36.75
2022-11-25T12:08:37.004Z,39.95
2022-11-25T12:11:14.170Z,41.10
2022-11-25T12:13:50.377Z,50.13
2022-11-25T12:16:27.082Z,39.08
2022-11-25T12:19:01.626Z,43.10
2022-11-25T12:21:42.299Z,37.92
2022-11-25T12:24:21.763Z,42.13
2022-11-25T12:27:02.615Z,38.47
2022-11-25T12:29:38.385Z,34.17
2022-11-25T12:32:28.329Z,37.47
2022-11-25T12:35:03.595Z,42.30
2022-11-25T12:37:39.522Z,39.55
2022-11-25T12:40:16.908Z,43.55
2022-11-25T12:42:50.013Z,34.22
2022-11-25T12:45:23.881Z,46.78
2022-11-25T12:47:54.251Z,31.70
2022-11-25T12:50:35.967Z,47.38
2022-11-25T12:53:13.745Z,42.13
2022-11-25T12:55:43.964Z,47.92
2022-11-25T12:58:41.995Z,43.60
2022-11-25T13:01:51.128Z,41.75
2022-11-25T13:05:13.084Z,35.92
2022-11-25T13:08:02.900Z,30.98
2022-11-25T13:10:44.946Z,41.22
2022-11-25T13:13:43.949Z,42.95
2022-11-25T13:16:14.392Z,43.08
2022-11-25T13:21:16.836Z,41.88
2022-11-25T13:23:52.500Z,41.15
2022-11-25T13:26:50.136Z,38.08
2022-11-25T13:30:05.119Z,45.55
2022-11-25T13:32:42.463Z,41.45
2022-11-25T13:35:33.804Z,44.55
2022-11-25T13:38:03.366Z,45.50
2022-11-25T13:40:38.989Z,47.60
2022-11-25T13:43:23.623Z,55.67
2022-11-25T13:45:53.963Z,63.08
2022-11-25T13:48:27.776Z,58.30
2022-11-25T13:51:17.026Z,40.45
2022-11-25T13:53:53.494Z,40.40
2022-11-25T13:56:29.935Z,36.40
2022-11-25T13:59:22.827Z,48.38
2022-11-25T14:01:56.302Z,46.03
2022-11-25T14:04:43.437Z,45.38
2022-11-25T14:07:28.656Z,42.25
2022-11-25T14:10:13.724Z,46.33
2022-11-25T14:13:09.911Z,55.67
2022-11-25T14:15:55.726Z,47.47
2022-11-25T14:19:27.994Z,44.42
2022-11-25T14:21:56.956Z,51.28
2022-11-25T14:24:39.428Z,45.00
2022-11-25T14:27:16.113Z,45.40
2022-11-25T14:29:52.760Z,52.83
2022-11-25T14:32:26.098Z,51.50
2022-11-25T14:35:01.871Z,40.97
2022-11-25T14:37:40.692Z,42.67
2022-11-25T14:40:16.181Z,44.22
2022-11-25T14:42:49.750Z,45.63
2022-11-25T14:45:26.601Z,38.90
2022-11-25T14:47:56.143Z,45.78
2022-11-25T14:50:34.783Z,36.78
2022-11-25T14:53:09.331Z,47.83
2022-11-25T14:55:39.672Z,44.22
2022-11-25T14:58:13.488Z,46.33
2022-11-25T15:00:52.912Z,42.35
2022-11-25T15:03:22.693Z,44.08
2022-11-25T15:05:57.539Z,68.50
2022-11-25T15:08:29.110Z,55.03
2022-11-25T15:11:01.780Z,59.47
2022-11-25T15:13:34.618Z,58.63
2022-11-25T15:16:11.979Z,53.70
2022-11-25T15:18:48.828Z,45.85
2022-11-25T15:21:23.442Z,48.85
2022-11-25T15:23:54.639Z,52.20
2022-11-25T15:26:25.919Z,60.60
2022-11-25T15:29:00.265Z,64.38
2022-11-25T15:31:32.036Z,53.22
2022-11-25T15:34:04.357Z,50.00
2022-11-25T15:36:34.358Z,58.33
2022-11-25T15:39:24.939Z,53.42
2022-11-25T15:41:57.463Z,59.72
2022-11-25T15:44:29.150Z,60.85
2022-11-25T15:47:02.205Z,58.15
2022-11-25T15:49:31.587Z,60.42
2022-11-25T15:52:07.283Z,52.72
2022-11-25T15:54:44.300Z,56.47
2022-11-25T15:57:19.663Z,58.45
2022-11-25T15:59:51.891Z,58.17
2022-11-25T16:02:50.505Z,60.85
2022-11-25T16:05:37.125Z,59.72
2022-11-25T16:08:26.826Z,59.47
2022-11-25T16:10:59.748Z,60.38
2022-11-25T16:13:37.795Z,65.70
2022-11-25T16:16:30.255Z,65.40
2022-11-25T16:19:13.099Z,61.53
2022-11-25T16:21:47.822Z,68.97
2022-11-25T16:24:41.933Z,74.05
2022-11-25T16:27:22.875Z,63.30
2022-11-25T16:29:55.991Z,64.22
2022-11-25T16:32:27.640Z,62.13
2022-11-25T16:35:02.608Z,58.08
2022-11-25T16:37:31.941Z,70.03
2022-11-25T16:40:01.985Z,61.95
2022-11-25T16:42:32.759Z,65.28
2022-11-25T16:45:02.943Z,60.47
2022-11-25T16:47:32.233Z,68.22
2022-11-25T16:50:02.326Z,64.95
2022-11-25T16:52:31.740Z,66.28
2022-11-25T16:55:01.506Z,63.60
2022-11-25T16:57:32.620Z,54.85
2022-11-25T17:00:08.682Z,68.35
2022-11-25T17:02:38.307Z,59.88
2022-11-25T17:05:18.220Z,65.32
2022-11-25T17:07:47.684Z,65.65
2022-11-25T17:10:18.335Z,60.25
2022-11-25T17:12:50.122Z,58.57
2022-11-25T17:15:22.663Z,66.65
2022-11-25T17:17:52.827Z,59.63
2022-11-25T17:20:25.369Z,63.67
2022-11-25T17:22:55.526Z,64.22
2022-11-25T17:25:25.878Z,80.63
2022-11-25T17:27:57.472Z,65.15
2022-11-25T17:30:29.420Z,69.32
2022-11-25T17:33:03.936Z,57.40
2022-11-25T17:35:33.551Z,59.97
2022-11-25T17:38:03.365Z,68.00
2022-11-25T17:40:33.875Z,65.80
2022-11-25T17:43:04.700Z,66.50
2022-11-25T17:45:34.513Z,73.20
2022-11-25T17:48:04.121Z,71.10
2022-11-25T17:50:36.393Z,80.00
2022-11-25T17:53:06.011Z,79.65
2022-11-25T17:55:38.083Z,91.22
2022-11-25T17:58:11.684Z,90.07
2022-11-25T18:00:45.372Z,93.57
2022-11-25T18:03:16.578Z,82.10
2022-11-25T18:05:46.382Z,78.95
2022-11-25T18:08:15.638Z,73.43
2022-11-25T18:10:47.979Z,73.93
2022-11-25T18:13:18.983Z,63.10
2022-11-25T18:15:49.283Z,64.40
2022-11-25T18:18:22.156Z,69.10
2022-11-25T18:20:52.813Z,77.40
2022-11-25T18:23:22.075Z,92.97
2022-11-25T18:25:52.615Z,74.05
2022-11-25T18:28:25.643Z,70.80
2022-11-25T18:31:05.901Z,80.72
2022-11-25T18:33:35.761Z,71.57
2022-11-25T18:36:06.207Z,88.88
2022-11-25T18:38:35.764Z,77.88
2022-11-25T18:41:08.760Z,71.80
2022-11-25T18:43:39.997Z,95.20
2022-11-25T18:46:10.436Z,90.95
2022-11-25T18:48:41.139Z,108.50
2022-11-25T18:53:42.892Z,100.47
2022-11-25T18:56:17.897Z,105.38
2022-11-25T18:58:52.835Z,106.88
2022-11-25T19:01:25.073Z,101.43
2022-11-25T19:03:55.620Z,106.35
2022-11-25T19:06:28.372Z,122.57
2022-11-25T19:08:57.865Z,144.60
2022-11-25T19:11:31.556Z,158.02
2022-11-25T19:14:06.014Z,158.30
2022-11-25T19:16:36.203Z,150.25
2022-11-25T19:19:05.669Z,153.32
2022-11-25T19:21:35.595Z,157.20
2022-11-25T19:24:12.492Z,167.40
2022-11-25T19:26:45.928Z,141.07
2022-11-25T19:29:21.696Z,131.32
2022-11-25T19:31:54.394Z,131.50
2022-11-25T19:34:28.805Z,130.45
2022-11-25T19:36:58.647Z,135.30
2022-11-25T19:39:29.080Z,105.90
2022-11-25T19:41:59.410Z,103.03
2022-11-25T19:44:30.344Z,87.43
2022-11-25T19:47:15.219Z,91.07
2022-11-25T19:49:45.976Z,93.18
2022-11-25T19:52:18.229Z,85.65
2022-11-25T19:54:49.461Z,91.03
2022-11-25T19:57:22.203Z,85.95
2022-11-25T19:59:53.759Z,79.57
2022-11-25T20:02:26.186Z,88.00
2022-11-25T20:04:57.795Z,98.45
2022-11-25T20:07:30.308Z,97.78
2022-11-25T20:10:04.532Z,85.05
2022-11-25T20:12:35.230Z,108.88
2022-11-25T20:15:07.635Z,113.30
2022-11-25T20:17:39.657Z,98.72
2022-11-25T20:20:14.041Z,109.00
2022-11-25T20:22:52.342Z,104.78
2022-11-25T20:25:21.863Z,111.57
2022-11-25T20:27:52.288Z,102.43
2022-11-25T20:30:24.223Z,92.38
2022-11-25T20:32:54.455Z,101.38
2022-11-25T20:35:26.804Z,91.95
2022-11-25T20:37:58.321Z,112.43
2022-11-25T20:40:38.692Z,95.25
2022-11-25T20:43:20.023Z,116.15
2022-11-25T20:45:51.666Z,104.90
2022-11-25T20:48:21.597Z,107.57
2022-11-25T20:50:51.046Z,105.93
2022-11-25T20:53:22.789Z,113.50
2022-11-25T20:55:52.493Z,108.00
2022-11-25T20:58:24.311Z,105.15
2022-11-25T21:00:57.803Z,120.90
2022-11-25T21:03:29.567Z,116.80
2022-11-25T21:08:31.832Z,122.67
2022-11-25T21:11:01.820Z,116.10
2022-11-25T21:13:32.772Z,106.18
2022-11-25T21:16:03.807Z,121.28
2022-11-25T21:18:33.863Z,98.10
2022-11-25T21:21:03.701Z,117.10
2022-11-25T21:23:38.163Z,117.22
2022-11-25T21:26:11.807Z,105.95
2022-11-25T21:28:45.088Z,106.63
2022-11-25T21:31:18.616Z,110.07
2022-11-25T21:33:49.399Z,110.60
2022-11-25T21:36:21.235Z,92.90
2022-11-25T21:38:53.703Z,108.78
2022-11-25T21:41:23.258Z,106.10
2022-11-25T21:43:53.332Z,108.75
2022-11-25T21:46:26.645Z,101.60
2022-11-25T21:48:56.745Z,109.57
2022-11-25T21:51:26.180Z,114.35
2022-11-25T21:53:56.395Z,107.97
2022-11-25T21:56:28.852Z,100.40
2022-11-25T21:59:00.070Z,109.18
2022-11-25T22:01:31.401Z,96.03
2022-11-25T22:04:01.793Z,92.13
2022-11-25T22:06:32.364Z,109.88
2022-11-25T22:09:02.389Z,105.82
2022-11-25T22:11:33.792Z,93.32
2022-11-25T22:14:06.204Z,95.53
2022-11-25T22:16:38.191Z,101.57
2022-11-25T22:19:08.403Z,99.95
2022-11-25T22:21:38.027Z,95.40
2022-11-25T22:24:16.029Z,100.80
2022-11-25T22:26:46.407Z,108.78
2022-11-25T22:29:17.665Z,94.78
2022-11-25T22:31:48.877Z,101.07
2022-11-25T22:34:20.758Z,103.00
2022-11-25T22:39:22.503Z,107.15
2022-11-25T22:41:55.512Z,102.25
2022-11-25T22:44:30.247Z,109.97
2022-11-25T22:47:01.488Z,157.23
2022-11-25T22:49:36.250Z,114.72
2022-11-25T22:52:06.176Z,123.00
2022-11-25T22:54:36.217Z,126.03
2022-11-25T22:57:06.552Z,128.80
2022-11-25T22:59:37.383Z,123.28
2022-11-25T23:02:08.589Z,120.72
2022-11-25T23:04:39.042Z,118.53
2022-11-25T23:07:13.938Z,117.57
2022-11-25T23:09:45.224Z,119.68
2022-11-25T23:12:15.643Z,139.57
2022-11-25T23:17:22.457Z,133.95
2022-11-25T23:19:53.462Z,141.55
2022-11-25T23:22:22.819Z,153.82
2022-11-25T23:24:52.592Z,139.70
2022-11-25T23:27:22.175Z,152.18
2022-11-25T23:29:52.956Z,150.60
2022-11-25T23:32:23.712Z,134.05
2022-11-25T23:34:53.931Z,127.13
2022-11-25T23:37:23.498Z,125.15
2022-11-25T23:39:55.052Z,124.35
2022-11-25T23:42:24.672Z,145.50
2022-11-25T23:44:54.935Z,141.05
2022-11-25T23:47:25.712Z,152.15
2022-11-25T23:49:59.143Z,163.52
2022-11-25T23:52:29.228Z,132.25
2022-11-25T23:54:59.579Z,155.73
2022-11-25T23:57:42.357Z,181.13
